createdAt,value
2022-10-11T00:01:00.501Z,25.90
2022-10-11T00:03:28.973Z,25.90
2022-10-11T00:05:57.074Z,25.90
2022-10-11T00:08:25.198Z,25.90
2022-10-11T00:11:01.485Z,25.90
2022-10-11T00:13:29.890Z,25.90
2022-10-11T00:15:58.689Z,25.90
2022-10-11T00:18:27.449Z,25.70
2022-10-11T00:21:04.277Z,25.60
2022-10-11T00:23:32.624Z,25.60
2022-10-11T00:26:02.639Z,25.70
2022-10-11T00:28:31.267Z,25.70
2022-10-11T00:30:59.403Z,25.80
2022-10-11T00:33:27.683Z,25.90
2022-10-11T00:35:55.828Z,25.90
2022-10-11T00:38:23.908Z,25.90
2022-10-11T00:40:52.158Z,26.00
2022-10-11T00:43:24.305Z,25.90
2022-10-11T00:45:58.217Z,25.90
2022-10-11T00:48:36.071Z,25.80
2022-10-11T00:51:10.763Z,25.80
2022-10-11T00:53:39.069Z,25.70
2022-10-11T00:56:36.124Z,25.80
2022-10-11T00:59:12.969Z,25.90
2022-10-11T01:01:41.495Z,25.90
2022-10-11T01:04:09.709Z,25.80
2022-10-11T01:06:37.986Z,25.70
2022-10-11T01:09:06.521Z,25.60
2022-10-11T01:11:36.396Z,25.50
2022-10-11T01:14:35.266Z,25.70
2022-10-11T01:17:03.466Z,25.90
2022-10-11T01:20:13.061Z,25.90
2022-10-11T01:23:22.898Z,25.80
2022-10-11T01:26:06.282Z,25.80
2022-10-11T01:29:02.071Z,25.60
2022-10-11T01:31:41.532Z,25.60
2022-10-11T01:34:15.670Z,25.50
2022-10-11T01:36:54.390Z,25.50
2022-10-11T01:39:32.117Z,25.40
2022-10-11T01:42:04.248Z,25.40
2022-10-11T01:44:32.735Z,25.40
2022-10-11T01:47:00.933Z,25.60
2022-10-11T01:49:29.253Z,25.60
2022-10-11T01:52:01.006Z,25.60
2022-10-11T01:55:08.659Z,25.40
2022-10-11T01:58:11.499Z,25.30
2022-10-11T02:01:04.251Z,25.30
2022-10-11T02:03:51.294Z,25.40
2022-10-11T02:06:33.939Z,25.50
2022-10-11T02:09:31.525Z,25.60
2022-10-11T02:12:11.092Z,25.60
2022-10-11T02:14:48.177Z,25.60
2022-10-11T02:17:21.888Z,25.50
2022-10-11T02:19:53.737Z,25.50
2022-10-11T02:22:28.523Z,25.50
2022-10-11T02:25:00.203Z,25.40
2022-10-11T02:27:33.629Z,25.30
2022-10-11T02:30:05.517Z,25.30
2022-10-11T02:32:35.046Z,25.20
2022-10-11T02:35:03.863Z,25.20
2022-10-11T02:37:34.010Z,25.20
2022-10-11T02:40:08.804Z,25.30
2022-10-11T02:42:50.390Z,25.40
2022-10-11T02:45:27.131Z,25.30
2022-10-11T02:47:55.946Z,25.30
2022-10-11T02:50:24.279Z,25.20
2022-10-11T02:52:52.576Z,25.20
2022-10-11T02:55:20.745Z,25.10
2022-10-11T02:57:49.116Z,25.30
2022-10-11T03:00:17.359Z,25.30
2022-10-11T03:02:45.489Z,25.30
2022-10-11T03:05:13.962Z,25.30
2022-10-11T03:07:41.956Z,25.30
2022-10-11T03:10:10.766Z,25.30
2022-10-11T03:12:38.952Z,25.40
2022-10-11T03:15:07.622Z,25.40
2022-10-11T03:17:37.161Z,25.20
2022-10-11T03:20:09.252Z,25.30
2022-10-11T03:22:37.761Z,25.20
2022-10-11T03:25:06.269Z,25.20
2022-10-11T03:27:35.868Z,25.10
2022-10-11T03:30:05.472Z,25.10
2022-10-11T03:32:33.712Z,25.10
2022-10-11T03:35:01.936Z,25.20
2022-10-11T03:37:30.213Z,25.30
2022-10-11T03:39:58.339Z,25.50
2022-10-11T03:42:26.660Z,25.30
2022-10-11T03:44:54.751Z,25.20
2022-10-11T03:47:22.986Z,25.10
2022-10-11T03:49:51.006Z,25.00
2022-10-11T03:52:19.284Z,24.90
2022-10-11T03:54:47.434Z,25.10
2022-10-11T03:57:15.769Z,25.20
2022-10-11T03:59:43.976Z,25.20
2022-10-11T04:02:12.281Z,25.30
2022-10-11T04:04:40.728Z,25.30
2022-10-11T04:07:09.363Z,25.20
2022-10-11T04:09:37.602Z,25.00
2022-10-11T04:12:05.915Z,25.00
2022-10-11T04:14:34.200Z,24.90
2022-10-11T04:17:02.270Z,24.90
2022-10-11T04:19:30.583Z,24.90
2022-10-11T04:21:58.972Z,24.80
2022-10-11T04:24:27.104Z,24.90
2022-10-11T04:26:55.245Z,25.00
2022-10-11T04:29:23.661Z,25.10
2022-10-11T04:31:51.833Z,25.20
2022-10-11T04:34:19.917Z,25.30
2022-10-11T04:36:50.064Z,25.30
2022-10-11T04:39:18.421Z,25.30
2022-10-11T04:41:46.754Z,25.20
2022-10-11T04:44:15.009Z,25.10
2022-10-11T04:46:43.253Z,25.10
2022-10-11T04:49:11.580Z,25.00
2022-10-11T04:51:39.795Z,25.00
2022-10-11T04:54:07.920Z,25.00
2022-10-11T04:56:36.228Z,25.00
2022-10-11T04:59:04.489Z,24.90
2022-10-11T05:01:32.673Z,25.10
2022-10-11T05:04:01.064Z,25.30
2022-10-11T05:06:31.092Z,25.20
2022-10-11T05:08:59.440Z,25.10
2022-10-11T05:11:27.722Z,25.00
2022-10-11T05:13:55.767Z,25.00
2022-10-11T05:16:24.342Z,24.90
2022-10-11T05:18:52.510Z,24.90
2022-10-11T05:21:26.688Z,25.00
2022-10-11T05:23:56.074Z,25.00
2022-10-11T05:26:26.257Z,25.00
2022-10-11T05:28:55.147Z,25.00
2022-10-11T05:31:23.670Z,24.80
2022-10-11T05:33:51.848Z,24.70
2022-10-11T05:36:19.969Z,24.70
2022-10-11T05:38:48.250Z,24.70
2022-10-11T05:41:16.938Z,24.70
2022-10-11T05:43:45.199Z,24.80
2022-10-11T05:46:13.807Z,24.70
2022-10-11T05:48:42.255Z,24.80
2022-10-11T05:51:11.930Z,24.90
2022-10-11T05:53:40.204Z,25.10
2022-10-11T05:56:23.319Z,25.20
2022-10-11T05:58:52.510Z,25.30
2022-10-11T06:01:26.340Z,25.40
2022-10-11T06:03:54.952Z,25.30
2022-10-11T06:06:22.980Z,25.20
2022-10-11T06:08:51.294Z,25.00
2022-10-11T06:11:22.290Z,25.00
2022-10-11T06:13:50.408Z,24.90
2022-10-11T06:16:18.504Z,24.80
2022-10-11T06:18:46.821Z,24.70
2022-10-11T06:21:14.845Z,24.80
2022-10-11T06:23:43.170Z,24.80
2022-10-11T06:26:11.687Z,25.00
2022-10-11T06:28:40.003Z,25.10
2022-10-11T06:31:08.514Z,25.10
2022-10-11T06:33:36.825Z,25.20
2022-10-11T06:36:16.293Z,25.20
2022-10-11T06:38:45.512Z,25.20
2022-10-11T06:41:22.173Z,25.10
2022-10-11T06:43:50.534Z,25.00
2022-10-11T06:46:20.260Z,25.00
2022-10-11T06:48:49.364Z,25.00
2022-10-11T06:51:20.783Z,25.00
2022-10-11T06:53:53.190Z,25.00
2022-10-11T06:56:21.463Z,25.00
2022-10-11T06:58:49.495Z,25.20
2022-10-11T07:01:19.613Z,25.50
2022-10-11T07:03:48.798Z,25.50
2022-10-11T07:06:19.609Z,25.60
2022-10-11T07:08:48.537Z,25.70
2022-10-11T07:11:20.143Z,25.60
2022-10-11T07:13:57.774Z,25.50
2022-10-11T07:16:26.966Z,25.60
2022-10-11T07:19:00.776Z,26.10
2022-10-11T07:21:31.282Z,26.30
2022-10-11T07:24:00.271Z,26.40
2022-10-11T07:26:33.727Z,26.40
2022-10-11T07:29:06.370Z,26.60
2022-10-11T07:31:34.682Z,26.70
2022-10-11T07:34:02.829Z,27.80
2022-10-11T07:36:30.985Z,28.50
2022-10-11T07:38:59.435Z,28.50
2022-10-11T07:41:27.567Z,29.50
2022-10-11T07:43:55.866Z,28.70
2022-10-11T07:46:23.886Z,27.70
2022-10-11T07:48:52.000Z,27.10
2022-10-11T07:51:22.642Z,26.50
2022-10-11T07:53:53.488Z,26.10
2022-10-11T07:56:24.359Z,25.90
2022-10-11T07:59:00.777Z,25.70
2022-10-11T08:01:30.218Z,25.50
2022-10-11T08:03:59.093Z,25.40
2022-10-11T08:06:30.740Z,25.50
2022-10-11T08:09:00.748Z,25.60
2022-10-11T08:11:34.489Z,25.70
2022-10-11T08:14:04.109Z,25.60
2022-10-11T08:16:32.707Z,25.60
2022-10-11T08:19:00.883Z,25.60
2022-10-11T08:21:29.301Z,25.40
2022-10-11T08:23:57.507Z,25.30
2022-10-11T08:26:25.912Z,25.30
2022-10-11T08:28:54.033Z,25.40
2022-10-11T08:31:22.270Z,25.30
2022-10-11T08:33:50.750Z,25.30
2022-10-11T08:36:19.008Z,24.50
2022-10-11T08:38:47.571Z,24.60
2022-10-11T08:41:30.872Z,24.50
2022-10-11T08:44:25.108Z,24.40
2022-10-11T08:47:11.620Z,24.50
2022-10-11T08:49:40.445Z,24.40
2022-10-11T08:52:38.606Z,24.40
2022-10-11T08:55:17.974Z,24.70
2022-10-11T08:57:52.538Z,24.30
2022-10-11T09:00:21.953Z,24.30
2022-10-11T09:03:11.570Z,24.40
2022-10-11T09:05:59.981Z,24.40
2022-10-11T09:09:03.163Z,24.50
2022-10-11T09:11:43.647Z,24.40
2022-10-11T09:14:41.344Z,24.40
2022-10-11T09:17:30.874Z,24.50
2022-10-11T09:20:27.951Z,24.80
2022-10-11T09:23:10.839Z,24.40
2022-10-11T09:26:00.949Z,24.50
2022-10-11T09:28:35.484Z,24.70
2022-10-11T09:31:03.753Z,24.40
2022-10-11T09:33:40.914Z,24.10
2022-10-11T09:36:31.969Z,24.30
2022-10-11T09:39:30.843Z,24.40
2022-10-11T09:42:09.989Z,24.40
2022-10-11T09:44:52.200Z,24.40
2022-10-11T09:47:27.636Z,24.30
2022-10-11T09:50:16.565Z,24.20
2022-10-11T09:52:52.613Z,24.30
2022-10-11T09:55:53.665Z,24.40
2022-10-11T09:58:33.518Z,24.50
2022-10-11T10:01:08.647Z,24.60
2022-10-11T10:03:43.901Z,24.50
2022-10-11T10:06:24.573Z,24.50
2022-10-11T10:08:53.103Z,24.50
2022-10-11T10:11:21.389Z,24.50
2022-10-11T10:13:54.831Z,24.40
2022-10-11T10:16:29.993Z,24.40
2022-10-11T10:19:07.687Z,24.40
2022-10-11T10:21:47.142Z,24.40
2022-10-11T10:24:33.518Z,24.40
2022-10-11T10:27:25.663Z,24.40
2022-10-11T10:30:09.466Z,24.80
2022-10-11T10:32:59.118Z,24.90
2022-10-11T10:35:44.357Z,24.80
2022-10-11T10:38:22.848Z,25.00
2022-10-11T10:41:03.926Z,24.60
2022-10-11T10:43:37.623Z,24.70
2022-10-11T10:46:33.441Z,24.50
2022-10-11T10:49:52.610Z,24.70
2022-10-11T10:52:14.210Z,24.70
2022-10-11T10:55:09.421Z,24.80
2022-10-11T10:58:04.483Z,24.80
2022-10-11T11:00:44.093Z,24.60
2022-10-11T11:03:24.509Z,24.80
2022-10-11T11:06:04.037Z,25.00
2022-10-11T11:08:41.963Z,25.30
2022-10-11T11:11:19.232Z,25.20
2022-10-11T11:14:23.149Z,25.00
2022-10-11T11:17:23.688Z,25.10
2022-10-11T11:20:34.407Z,25.00
2022-10-11T11:23:17.718Z,24.80
2022-10-11T11:26:24.657Z,25.00
2022-10-11T11:29:17.595Z,25.10
2022-10-11T11:32:27.741Z,25.60
2022-10-11T11:35:04.199Z,25.90
2022-10-11T11:37:43.522Z,26.00
2022-10-11T11:40:53.854Z,26.80
2022-10-11T11:43:35.463Z,26.90
2022-10-11T11:46:12.969Z,27.00
2022-10-11T11:48:42.266Z,26.80
2022-10-11T11:51:18.430Z,27.40
2022-10-11T11:54:08.683Z,27.60
2022-10-11T11:56:39.747Z,27.10
2022-10-11T11:59:24.381Z,27.00
2022-10-11T12:02:30.244Z,27.60
2022-10-11T12:05:00.083Z,27.70
2022-10-11T12:07:30.366Z,27.80
2022-10-11T12:10:31.986Z,27.90
2022-10-11T12:13:34.032Z,28.00
2022-10-11T12:16:05.517Z,28.10
2022-10-11T12:18:39.338Z,27.90
2022-10-11T12:21:36.535Z,27.80
2022-10-11T12:24:24.579Z,27.30
2022-10-11T12:26:57.799Z,27.40
2022-10-11T12:29:48.051Z,27.80
2022-10-11T12:32:28.189Z,28.10
2022-10-11T12:35:33.641Z,28.10
2022-10-11T12:38:23.188Z,28.10
2022-10-11T12:41:00.420Z,27.90
2022-10-11T12:43:32.377Z,27.70
2022-10-11T12:46:20.452Z,27.90
2022-10-11T12:48:57.613Z,28.20
2022-10-11T12:51:31.186Z,28.40
2022-10-11T12:54:31.064Z,28.60
2022-10-11T12:57:21.194Z,28.80
2022-10-11T12:59:51.070Z,29.20
2022-10-11T13:02:40.537Z,29.20
2022-10-11T13:05:26.406Z,29.20
2022-10-11T13:07:57.859Z,29.30
2022-10-11T13:10:35.331Z,29.60
2022-10-11T13:13:06.777Z,29.40
2022-10-11T13:15:36.212Z,29.50
2022-10-11T13:18:04.441Z,29.60
2022-10-11T13:20:37.665Z,29.20
2022-10-11T13:23:36.339Z,29.40
2022-10-11T13:26:05.604Z,29.10
2022-10-11T13:28:36.512Z,29.50
2022-10-11T13:31:05.661Z,29.60
2022-10-11T13:33:38.089Z,29.50
2022-10-11T13:36:09.309Z,29.50
2022-10-11T13:38:38.365Z,29.50
2022-10-11T13:41:09.889Z,29.50
2022-10-11T13:43:39.923Z,29.70
2022-10-11T13:46:30.838Z,29.70
2022-10-11T13:49:23.741Z,29.60
2022-10-11T13:52:03.781Z,29.50
2022-10-11T13:55:05.594Z,29.70
2022-10-11T13:57:47.586Z,29.80
2022-10-11T14:00:16.013Z,29.60
2022-10-11T14:02:55.396Z,29.50
2022-10-11T14:05:34.592Z,29.50
2022-10-11T14:08:27.713Z,30.10
2022-10-11T14:10:58.533Z,30.30
2022-10-11T14:13:33.290Z,30.60
2022-10-11T14:16:12.070Z,30.80
2022-10-11T14:18:51.029Z,30.80
2022-10-11T14:21:22.101Z,30.90
2022-10-11T14:24:21.849Z,30.80
2022-10-11T14:26:55.119Z,30.50
2022-10-11T14:29:31.623Z,30.30
2022-10-11T14:32:11.022Z,30.10
2022-10-11T14:34:39.726Z,29.70
2022-10-11T14:37:07.903Z,29.50
2022-10-11T14:39:36.299Z,29.60
2022-10-11T14:42:04.703Z,29.70
2022-10-11T14:44:33.063Z,29.80
2022-10-11T14:47:01.170Z,29.80
2022-10-11T14:49:30.978Z,29.90
2022-10-11T14:52:00.220Z,29.80
2022-10-11T14:54:32.343Z,30.00
2022-10-11T14:57:03.552Z,30.00
2022-10-11T14:59:37.656Z,29.80
2022-10-11T15:02:07.580Z,29.70
2022-10-11T15:04:36.377Z,29.80
2022-10-11T15:07:05.287Z,29.90
2022-10-11T15:09:33.619Z,30.00
2022-10-11T15:12:01.908Z,30.10
2022-10-11T15:14:30.179Z,30.10
2022-10-11T15:16:58.372Z,30.00
2022-10-11T15:19:26.829Z,29.80
2022-10-11T15:21:55.201Z,30.00
2022-10-11T15:24:23.355Z,29.90
2022-10-11T15:26:51.557Z,30.10
2022-10-11T15:29:19.951Z,30.30
2022-10-11T15:31:48.119Z,30.30
2022-10-11T15:34:16.588Z,30.20
2022-10-11T15:36:45.311Z,30.20
2022-10-11T15:39:39.711Z,30.30
2022-10-11T15:42:07.904Z,29.90
2022-10-11T15:44:36.608Z,29.70
2022-10-11T15:47:04.751Z,29.70
2022-10-11T15:49:33.067Z,29.50
2022-10-11T15:52:01.187Z,29.50
2022-10-11T15:54:29.545Z,29.50
2022-10-11T15:56:57.654Z,29.80
2022-10-11T15:59:26.037Z,29.90
2022-10-11T16:01:54.373Z,29.80
2022-10-11T16:04:23.418Z,29.60
2022-10-11T16:06:51.486Z,29.80
2022-10-11T16:09:19.863Z,30.00
2022-10-11T16:11:48.012Z,30.20
2022-10-11T16:17:40.668Z,30.00
2022-10-11T16:20:09.495Z,29.70
2022-10-11T16:22:37.573Z,29.80
2022-10-11T16:25:06.330Z,30.10
2022-10-11T16:27:34.994Z,30.20
2022-10-11T16:30:04.326Z,30.10
2022-10-11T16:32:34.197Z,30.10
2022-10-11T16:35:02.411Z,30.20
2022-10-11T16:37:33.104Z,30.20
2022-10-11T16:40:01.645Z,30.00
2022-10-11T16:42:29.736Z,30.10
2022-10-11T16:44:58.089Z,30.20
2022-10-11T16:47:26.168Z,30.20
2022-10-11T16:49:54.423Z,29.90
2022-10-11T16:52:22.614Z,30.10
2022-10-11T16:54:50.659Z,30.20
2022-10-11T16:57:20.239Z,30.20
2022-10-11T16:59:48.567Z,30.30
2022-10-11T17:02:27.641Z,30.20
2022-10-11T18:25:34.195Z,28.00
2022-10-11T18:28:02.348Z,27.90
2022-10-11T18:30:30.461Z,28.00
2022-10-11T18:32:58.549Z,28.00
2022-10-11T18:35:26.906Z,27.80
2022-10-11T18:38:00.032Z,27.60
2022-10-11T18:40:29.122Z,27.20
2022-10-11T18:42:57.309Z,26.70
2022-10-11T18:45:25.453Z,26.30
2022-10-11T18:47:53.691Z,26.20
2022-10-11T18:50:21.700Z,26.10
2022-10-11T18:52:50.312Z,26.00
2022-10-11T18:55:18.613Z,26.10
2022-10-11T18:57:46.770Z,26.40
2022-10-11T19:00:39.128Z,26.20
2022-10-11T19:03:03.640Z,26.00
2022-10-11T19:05:31.665Z,26.00
2022-10-11T19:10:12.182Z,25.90
2022-10-11T19:12:40.394Z,25.80
2022-10-11T19:15:08.997Z,25.70
2022-10-11T19:17:37.308Z,25.80
2022-10-11T19:20:05.670Z,26.00
2022-10-11T19:22:34.003Z,26.10
2022-10-11T19:25:02.109Z,25.60
2022-10-11T19:27:30.293Z,25.50
2022-10-11T19:29:58.524Z,25.50
2022-10-11T19:32:26.754Z,25.30
2022-10-11T19:38:45.013Z,25.50
2022-10-11T19:41:14.191Z,25.50
2022-10-11T19:43:42.559Z,25.50
2022-10-11T19:46:13.589Z,25.70
2022-10-11T19:48:43.904Z,25.90
2022-10-11T19:51:15.086Z,25.70
2022-10-11T19:53:43.977Z,25.70
2022-10-11T19:56:14.793Z,25.60
2022-10-11T19:58:43.838Z,25.40
2022-10-11T20:01:15.124Z,25.30
2022-10-11T20:03:44.823Z,25.30
2022-10-11T20:06:13.917Z,25.20
2022-10-11T20:08:44.299Z,25.40
2022-10-11T20:11:13.717Z,25.40
2022-10-11T20:13:42.237Z,25.30
2022-10-11T20:16:13.106Z,25.30
2022-10-11T20:18:42.036Z,25.20
2022-10-11T20:21:13.166Z,25.00
2022-10-11T20:23:44.017Z,25.00
2022-10-11T20:26:14.700Z,25.00
2022-10-11T20:28:44.427Z,25.20
2022-10-11T20:31:18.441Z,25.20
2022-10-11T20:33:48.056Z,25.20
2022-10-11T20:36:18.967Z,25.20
2022-10-11T20:38:49.398Z,25.00
2022-10-11T20:41:23.357Z,25.00
2022-10-11T20:43:54.315Z,24.90
2022-10-11T20:46:24.624Z,24.90
2022-10-11T20:49:01.608Z,24.70
2022-10-11T20:51:32.078Z,24.80
2022-10-11T20:54:01.119Z,25.10
2022-10-11T20:56:29.514Z,24.90
2022-10-11T20:58:58.668Z,24.80
2022-10-11T21:01:30.097Z,24.60
2022-10-11T21:03:59.733Z,24.60
2022-10-11T21:06:28.870Z,24.60
2022-10-11T21:08:58.068Z,24.80
2022-10-11T21:11:30.412Z,24.90
2022-10-11T21:13:59.286Z,25.00
2022-10-11T21:16:27.971Z,25.00
2022-10-11T21:18:58.476Z,25.00
2022-10-11T21:21:28.007Z,25.10
2022-10-11T21:24:00.967Z,24.90
2022-10-11T21:26:30.241Z,25.00
2022-10-11T21:28:58.985Z,24.90
2022-10-11T21:31:32.910Z,24.80
2022-10-11T21:34:03.387Z,24.90
2022-10-11T21:36:31.861Z,24.80
2022-10-11T21:39:00.235Z,24.90
2022-10-11T21:41:28.887Z,25.00
2022-10-11T21:43:57.440Z,25.20
2022-10-11T21:46:47.530Z,25.10
2022-10-11T21:49:17.072Z,25.10
2022-10-11T21:53:55.324Z,25.00
2022-10-11T21:56:24.167Z,25.00
2022-10-11T21:58:52.283Z,25.10
2022-10-11T22:01:21.013Z,25.10
2022-10-11T22:03:49.812Z,25.30
2022-10-11T22:06:18.421Z,25.10
2022-10-11T22:08:46.567Z,25.30
2022-10-11T22:11:18.409Z,25.10
2022-10-11T22:13:46.688Z,25.10
2022-10-11T22:16:15.907Z,25.20
2022-10-11T22:18:44.162Z,24.90
2022-10-11T22:21:13.756Z,24.80
2022-10-11T22:23:43.823Z,24.80
2022-10-11T22:26:18.940Z,24.70
2022-10-11T22:28:47.711Z,24.80
2022-10-11T22:31:17.818Z,24.90
2022-10-11T22:33:46.306Z,24.90
2022-10-11T22:36:15.322Z,25.00
2022-10-11T22:38:44.506Z,24.90
2022-10-11T22:41:13.414Z,24.80
2022-10-11T22:43:41.779Z,24.80
2022-10-11T22:46:10.435Z,24.80
2022-10-11T22:48:38.611Z,24.80
2022-10-11T22:51:06.870Z,24.90
2022-10-11T22:53:35.230Z,25.00
2022-10-11T22:56:03.733Z,25.00
2022-10-11T22:58:32.008Z,25.10
2022-10-11T23:01:13.834Z,24.90
2022-10-11T23:03:42.389Z,24.80
2022-10-11T23:06:10.592Z,24.90
2022-10-11T23:08:38.852Z,24.80
2022-10-11T23:11:08.250Z,24.80
2022-10-11T23:13:36.429Z,24.80
2022-10-11T23:16:12.847Z,24.60
2022-10-11T23:18:41.222Z,24.50
2022-10-11T23:21:09.957Z,24.50
2022-10-11T23:23:38.214Z,24.40
2022-10-11T23:26:09.549Z,24.40
2022-10-11T23:28:38.285Z,24.50
2022-10-11T23:31:13.699Z,24.60
2022-10-11T23:33:41.992Z,24.50
2022-10-11T23:36:19.137Z,24.40
2022-10-11T23:38:55.197Z,24.50
2022-10-11T23:41:24.963Z,24.40
2022-10-11T23:43:53.596Z,24.30
2022-10-11T23:46:21.891Z,24.40
2022-10-11T23:48:50.021Z,24.50
2022-10-11T23:51:18.342Z,24.70
2022-10-11T23:53:46.508Z,24.60
2022-10-11T23:56:14.666Z,24.60
2022-10-11T23:58:42.923Z,24.50
